« Back
NWS Peachtree City, Ga » Text Product » ATL Terminal Aerodrome Forecast


Printer-friendly Version
Current Version              Previous Versions:   1  2  3  4  5  6  7  8  9  

Terminal Aerodrome Forecast

460
FTUS42 KFFC 221100
TAFATL
TAF
KATL 221126Z 2212/2318 30006KT P6SM FEW250
     FM221500 30007KT P6SM FEW040
     FM221700 31008KT P6SM SCT050
     FM230100 28006KT P6SM FEW070
     FM231500 32008KT P6SM SCT040=

USA.gov is the U.S. government's official web portal to all federal, state and local government web resources and services.